ZSSS

Shanghai Hongqiao International Airport

Shanghai, China
METAR ZSSS 170000Z 28002MPS 250V330 CAVOK 02/M03 Q1029 NOSIG
Observed Flight Rules
Jan-17 @ 00:00 UTC (40 minutes ago) Visual Flight Rules
Wind Visibility Clouds
280° at 4 knots 10,000+ meters
  • Clear skies
Temperatures Readings
Current 2°C / 36°F
Dewpoint -3°C / 27°F
Humidity 70%
Altimeter 30.38" Hg
Pressure 1028.91 hPa
Elevation 7
METAR ZSSS 170000Z 28002MPS 250V330 CAVOK 02/M03 Q1029 NOSIG
Observed Flight Rules
Jan-17 @ 00:00 UTC
(40 minutes ago)
VFR
Wind Visibility
280° at 4 knots 10,000+ meters
Clouds
  • Clear skies
Temperature Dewpoint
2°C / 36°F -3°C / 27°F
Humidity Altimeter Pressure
70% 30.38" Hg 1028.91 hPa